sensor_id;sensor_type;location;lat;lon;timestamp;temperature;humidity
7212;DHT22;3647;48.792;9.802;2023-01-13T07:21:28;9.90;99.90
7212;DHT22;3647;48.792;9.802;2023-01-13T07:23:55;8.30;99.90
7212;DHT22;3647;48.792;9.802;2023-01-13T07:26:21;9.90;99.90
7212;DHT22;3647;48.792;9.802;2023-01-13T07:28:48;9.90;99.90
7212;DHT22;3647;48.792;9.802;2023-01-13T07:31:17;9.80;99.90
7212;DHT22;3647;48.792;9.802;2023-01-13T07:33:45;9.90;99.90
7212;DHT22;3647;48.792;9.802;2023-01-13T07:36:12;9.90;99.90
7212;DHT22;3647;48.792;9.802;2023-01-13T07:38:40;9.90;99.90
7212;DHT22;3647;48.792;9.802;2023-01-13T07:41:11;9.90;99.90
7212;DHT22;3647;48.792;9.802;2023-01-13T07:43:55;9.90;99.90
7212;DHT22;3647;48.792;9.802;2023-01-13T07:46:22;10.00;99.90
7212;DHT22;3647;48.792;9.802;2023-01-13T07:48:49;10.10;99.90
7212;DHT22;3647;48.792;9.802;2023-01-13T07:51:16;10.10;99.90
7212;DHT22;3647;48.792;9.802;2023-01-13T07:53:44;10.00;99.90
7212;DHT22;3647;48.792;9.802;2023-01-13T07:56:11;10.10;99.90
7212;DHT22;3647;48.792;9.802;2023-01-13T07:58:38;10.10;99.90
7212;DHT22;3647;48.792;9.802;2023-01-13T08:01:09;10.20;99.90
7212;DHT22;3647;48.792;9.802;2023-01-13T08:03:36;10.20;99.90
7212;DHT22;3647;48.792;9.802;2023-01-13T08:06:03;10.20;99.90
7212;DHT22;3647;48.792;9.802;2023-01-13T08:08:31;10.20;99.90
7212;DHT22;3647;48.792;9.802;2023-01-13T08:10:59;11.40;99.90
7212;DHT22;3647;48.792;9.802;2023-01-13T08:13:26;10.30;99.90
7212;DHT22;3647;48.792;9.802;2023-01-13T08:15:53;10.30;99.90
7212;DHT22;3647;48.792;9.802;2023-01-13T08:18:24;10.30;99.90
7212;DHT22;3647;48.792;9.802;2023-01-13T08:20:51;10.30;99.90
7212;DHT22;3647;48.792;9.802;2023-01-13T08:23:18;10.40;99.90
7212;DHT22;3647;48.792;9.802;2023-01-13T08:25:45;10.40;99.90
7212;DHT22;3647;48.792;9.802;2023-01-13T08:28:15;10.40;99.90
7212;DHT22;3647;48.792;9.802;2023-01-13T08:30:42;10.40;99.90
7212;DHT22;3647;48.792;9.802;2023-01-13T08:33:10;10.50;99.90
7212;DHT22;3647;48.792;9.802;2023-01-13T08:35:38;10.50;99.90
7212;DHT22;3647;48.792;9.802;2023-01-13T08:38:05;10.60;99.90
7212;DHT22;3647;48.792;9.802;2023-01-13T08:40:32;10.60;99.90
7212;DHT22;3647;48.792;9.802;2023-01-13T08:42:59;10.70;99.90
7212;DHT22;3647;48.792;9.802;2023-01-13T08:45:27;10.70;99.90
7212;DHT22;3647;48.792;9.802;2023-01-13T08:47:54;10.70;99.90
7212;DHT22;3647;48.792;9.802;2023-01-13T08:50:21;10.80;99.90
7212;DHT22;3647;48.792;9.802;2023-01-13T08:52:48;11.20;99.90
7212;DHT22;3647;48.792;9.802;2023-01-13T08:55:15;10.90;99.90
7212;DHT22;3647;48.792;9.802;2023-01-13T08:57:42;11.90;99.90
7212;DHT22;3647;48.792;9.802;2023-01-13T09:00:10;10.90;99.90
7212;DHT22;3647;48.792;9.802;2023-01-13T09:02:39;11.00;99.90
7212;DHT22;3647;48.792;9.802;2023-01-13T09:05:06;12.30;99.90
7212;DHT22;3647;48.792;9.802;2023-01-13T09:07:34;11.00;99.90
7212;DHT22;3647;48.792;9.802;2023-01-13T09:10:02;11.00;99.90
7212;DHT22;3647;48.792;9.802;2023-01-13T09:12:29;10.90;99.90
7212;DHT22;3647;48.792;9.802;2023-01-13T09:15:13;12.30;99.90
7212;DHT22;3647;48.792;9.802;2023-01-13T09:17:44;10.80;99.90
7212;DHT22;3647;48.792;9.802;2023-01-13T09:20:12;10.70;99.90
7212;DHT22;3647;48.792;9.802;2023-01-13T09:22:39;10.70;99.90
7212;DHT22;3647;48.792;9.802;2023-01-13T09:25:07;10.60;99.90
7212;DHT22;3647;48.792;9.802;2023-01-13T09:27:34;10.50;99.90
7212;DHT22;3647;48.792;9.802;2023-01-13T09:30:01;10.50;99.90
7212;DHT22;3647;48.792;9.802;2023-01-13T09:32:28;10.50;99.90
7212;DHT22;3647;48.792;9.802;2023-01-13T09:34:56;10.50;99.90
7212;DHT22;3647;48.792;9.802;2023-01-13T09:37:25;10.50;99.90
7212;DHT22;3647;48.792;9.802;2023-01-13T09:39:51;10.50;99.90
7212;DHT22;3647;48.792;9.802;2023-01-13T09:42:23;10.50;99.90
7212;DHT22;3647;48.792;9.802;2023-01-13T09:45:12;10.50;99.90
7212;DHT22;3647;48.792;9.802;2023-01-13T09:47:44;10.40;99.90
7212;DHT22;3647;48.792;9.802;2023-01-13T09:50:23;10.40;99.90
7212;DHT22;3647;48.792;9.802;2023-01-13T09:52:51;10.40;99.90
7212;DHT22;3647;48.792;9.802;2023-01-13T09:55:23;10.20;99.90
7212;DHT22;3647;48.792;9.802;2023-01-13T09:57:51;12.10;99.90
7212;DHT22;3647;48.792;9.802;2023-01-13T10:00:21;9.90;99.90
7212;DHT22;3647;48.792;9.802;2023-01-13T10:05:57;9.80;99.90
7212;DHT22;3647;48.792;9.802;2023-01-13T10:08:26;9.70;99.90
7212;DHT22;3647;48.792;9.802;2023-01-13T10:10:55;11.70;99.90
7212;DHT22;3647;48.792;9.802;2023-01-13T10:13:25;10.00;99.90
7212;DHT22;3647;48.792;9.802;2023-01-13T10:16:15;9.60;99.90
7212;DHT22;3647;48.792;9.802;2023-01-13T10:19:02;9.60;99.90
7212;DHT22;3647;48.792;9.802;2023-01-13T10:21:57;9.50;99.90
7212;DHT22;3647;48.792;9.802;2023-01-13T10:24:32;9.60;99.90
7212;DHT22;3647;48.792;9.802;2023-01-13T10:27:13;11.00;99.90
7212;DHT22;3647;48.792;9.802;2023-01-13T10:29:40;9.50;99.90
7212;DHT22;3647;48.792;9.802;2023-01-13T10:32:07;9.50;99.90
7212;DHT22;3647;48.792;9.802;2023-01-13T10:34:44;9.60;99.90
7212;DHT22;3647;48.792;9.802;2023-01-13T10:37:20;11.40;99.90
7212;DHT22;3647;48.792;9.802;2023-01-13T10:39:48;9.60;99.90
7212;DHT22;3647;48.792;9.802;2023-01-13T10:42:16;9.60;99.90
7212;DHT22;3647;48.792;9.802;2023-01-13T10:44:51;9.60;99.90
7212;DHT22;3647;48.792;9.802;2023-01-13T10:47:24;9.50;99.90
7212;DHT22;3647;48.792;9.802;2023-01-13T10:50:00;9.50;99.90
7212;DHT22;3647;48.792;9.802;2023-01-13T10:52:30;9.30;99.90
7212;DHT22;3647;48.792;9.802;2023-01-13T10:54:58;9.30;99.90
7212;DHT22;3647;48.792;9.802;2023-01-13T10:57:26;9.20;99.90
7212;DHT22;3647;48.792;9.802;2023-01-13T10:59:53;9.10;99.90
7212;DHT22;3647;48.792;9.802;2023-01-13T11:02:27;9.10;99.90
7212;DHT22;3647;48.792;9.802;2023-01-13T11:05:03;9.20;99.90
7212;DHT22;3647;48.792;9.802;2023-01-13T11:07:38;9.50;99.90
7212;DHT22;3647;48.792;9.802;2023-01-13T11:10:21;9.20;99.90
7212;DHT22;3647;48.792;9.802;2023-01-13T11:12:56;9.10;99.90
7212;DHT22;3647;48.792;9.802;2023-01-13T11:15:32;9.10;99.90
7212;DHT22;3647;48.792;9.802;2023-01-13T11:18:06;9.10;99.90
7212;DHT22;3647;48.792;9.802;2023-01-13T11:20:37;9.00;99.90
7212;DHT22;3647;48.792;9.802;2023-01-13T11:23:14;9.00;99.90
7212;DHT22;3647;48.792;9.802;2023-01-13T11:25:48;9.00;99.90
7212;DHT22;3647;48.792;9.802;2023-01-13T11:28:34;9.00;99.90
7212;DHT22;3647;48.792;9.802;2023-01-13T11:31:08;9.10;99.90
7212;DHT22;3647;48.792;9.802;2023-01-13T11:33:40;9.20;99.90
7212;DHT22;3647;48.792;9.802;2023-01-13T11:36:12;9.10;99.90
7212;DHT22;3647;48.792;9.802;2023-01-13T11:38:45;8.90;99.90
7212;DHT22;3647;48.792;9.802;2023-01-13T11:41:39;8.90;99.90
7212;DHT22;3647;48.792;9.802;2023-01-13T11:44:18;8.80;99.90
7212;DHT22;3647;48.792;9.802;2023-01-13T11:46:48;10.20;99.90
7212;DHT22;3647;48.792;9.802;2023-01-13T11:49:24;8.80;99.90
7212;DHT22;3647;48.792;9.802;2023-01-13T11:51:56;8.60;99.90
7212;DHT22;3647;48.792;9.802;2023-01-13T11:57:33;8.60;99.90
7212;DHT22;3647;48.792;9.802;2023-01-13T12:00:16;8.70;99.90
7212;DHT22;3647;48.792;9.802;2023-01-13T12:02:52;8.70;99.90
7212;DHT22;3647;48.792;9.802;2023-01-13T12:05:28;8.80;99.90
7212;DHT22;3647;48.792;9.802;2023-01-13T12:08:08;8.80;99.90
7212;DHT22;3647;48.792;9.802;2023-01-13T12:10:52;8.80;99.90
7212;DHT22;3647;48.792;9.802;2023-01-13T12:13:26;8.70;99.90
7212;DHT22;3647;48.792;9.802;2023-01-13T12:22:08;8.60;99.90
7212;DHT22;3647;48.792;9.802;2023-01-13T12:24:42;8.50;99.90
7212;DHT22;3647;48.792;9.802;2023-01-13T12:27:17;9.20;99.90
7212;DHT22;3647;48.792;9.802;2023-01-13T12:29:48;8.50;99.90
7212;DHT22;3647;48.792;9.802;2023-01-13T12:32:18;8.10;99.90
7212;DHT22;3647;48.792;9.802;2023-01-13T12:35:01;8.50;99.90
7212;DHT22;3647;48.792;9.802;2023-01-13T12:37:36;8.40;99.90
7212;DHT22;3647;48.792;9.802;2023-01-13T12:40:18;8.50;99.90
7212;DHT22;3647;48.792;9.802;2023-01-13T12:42:57;8.50;99.90
7212;DHT22;3647;48.792;9.802;2023-01-13T12:45:45;8.60;99.90
7212;DHT22;3647;48.792;9.802;2023-01-13T12:48:45;8.60;99.90
7212;DHT22;3647;48.792;9.802;2023-01-13T12:51:31;8.70;99.90
7212;DHT22;3647;48.792;9.802;2023-01-13T12:53:59;8.70;99.90
7212;DHT22;3647;48.792;9.802;2023-01-13T12:56:31;8.90;99.90
7212;DHT22;3647;48.792;9.802;2023-01-13T13:02:32;8.50;99.90
7212;DHT22;3647;48.792;9.802;2023-01-13T13:05:38;8.60;99.90
7212;DHT22;3647;48.792;9.802;2023-01-13T13:08:15;8.80;99.90
7212;DHT22;3647;48.792;9.802;2023-01-13T13:10:56;8.80;99.90
7212;DHT22;3647;48.792;9.802;2023-01-13T13:13:44;8.90;99.90
7212;DHT22;3647;48.792;9.802;2023-01-13T13:16:42;8.90;99.90
7212;DHT22;3647;48.792;9.802;2023-01-13T13:19:42;8.50;99.90
7212;DHT22;3647;48.792;9.802;2023-01-13T13:22:43;8.70;99.90
7212;DHT22;3647;48.792;9.802;2023-01-13T13:25:24;8.70;99.90
7212;DHT22;3647;48.792;9.802;2023-01-13T13:28:16;8.60;99.90
7212;DHT22;3647;48.792;9.802;2023-01-13T13:30:51;8.60;99.90
7212;DHT22;3647;48.792;9.802;2023-01-13T13:33:37;8.60;99.90
7212;DHT22;3647;48.792;9.802;2023-01-13T13:36:18;8.60;99.90
7212;DHT22;3647;48.792;9.802;2023-01-13T13:39:03;8.80;99.90
7212;DHT22;3647;48.792;9.802;2023-01-13T13:41:56;9.10;99.90
7212;DHT22;3647;48.792;9.802;2023-01-13T13:44:46;9.10;99.90
7212;DHT22;3647;48.792;9.802;2023-01-13T13:47:36;9.10;99.90
7212;DHT22;3647;48.792;9.802;2023-01-13T13:50:10;9.20;99.90
7212;DHT22;3647;48.792;9.802;2023-01-13T13:52:42;9.30;99.90
7212;DHT22;3647;48.792;9.802;2023-01-13T13:55:17;9.20;99.90
7212;DHT22;3647;48.792;9.802;2023-01-13T13:57:46;9.50;99.90
7212;DHT22;3647;48.792;9.802;2023-01-13T14:00:24;9.20;99.90
7212;DHT22;3647;48.792;9.802;2023-01-13T14:02:53;9.20;99.90
7212;DHT22;3647;48.792;9.802;2023-01-13T14:05:22;9.20;99.90
7212;DHT22;3647;48.792;9.802;2023-01-13T14:07:58;9.20;99.90
7212;DHT22;3647;48.792;9.802;2023-01-13T14:10:29;9.20;99.90
7212;DHT22;3647;48.792;9.802;2023-01-13T14:12:58;9.20;99.90
7212;DHT22;3647;48.792;9.802;2023-01-13T14:15:30;9.30;99.90
7212;DHT22;3647;48.792;9.802;2023-01-13T14:17:58;9.10;99.90
7212;DHT22;3647;48.792;9.802;2023-01-13T14:20:26;9.20;99.90
7212;DHT22;3647;48.792;9.802;2023-01-13T14:22:55;9.10;99.90
7212;DHT22;3647;48.792;9.802;2023-01-13T14:25:27;8.90;99.90
7212;DHT22;3647;48.792;9.802;2023-01-13T14:27:55;8.90;99.90
7212;DHT22;3647;48.792;9.802;2023-01-13T14:30:26;8.80;99.90
7212;DHT22;3647;48.792;9.802;2023-01-13T14:32:53;8.70;99.90
7212;DHT22;3647;48.792;9.802;2023-01-13T14:35:21;8.60;99.90
7212;DHT22;3647;48.792;9.802;2023-01-13T14:37:48;8.60;99.90
7212;DHT22;3647;48.792;9.802;2023-01-13T14:40:44;8.60;99.90
7212;DHT22;3647;48.792;9.802;2023-01-13T14:43:14;8.60;99.90
7212;DHT22;3647;48.792;9.802;2023-01-13T14:45:52;9.20;99.90
7212;DHT22;3647;48.792;9.802;2023-01-13T14:48:21;9.40;99.90
7212;DHT22;3647;48.792;9.802;2023-01-13T14:50:49;8.50;99.90
7212;DHT22;3647;48.792;9.802;2023-01-13T14:53:35;8.40;99.90
7212;DHT22;3647;48.792;9.802;2023-01-13T14:56:40;8.30;99.90
7212;DHT22;3647;48.792;9.802;2023-01-13T14:59:39;8.30;99.90
7212;DHT22;3647;48.792;9.802;2023-01-13T15:02:36;8.20;99.90
7212;DHT22;3647;48.792;9.802;2023-01-13T15:05:30;8.10;99.90
7212;DHT22;3647;48.792;9.802;2023-01-13T15:07:59;8.00;99.90
7212;DHT22;3647;48.792;9.802;2023-01-13T15:10:28;7.90;99.90
7212;DHT22;3647;48.792;9.802;2023-01-13T15:12:58;7.80;99.90
7212;DHT22;3647;48.792;9.802;2023-01-13T15:15:28;7.80;99.90
7212;DHT22;3647;48.792;9.802;2023-01-13T15:17:57;7.60;99.90
7212;DHT22;3647;48.792;9.802;2023-01-13T17:09:18;6.70;99.90
7212;DHT22;3647;48.792;9.802;2023-01-13T17:11:45;6.70;99.90
7212;DHT22;3647;48.792;9.802;2023-01-13T17:14:12;6.70;99.90
7212;DHT22;3647;48.792;9.802;2023-01-13T17:16:40;6.60;99.90
7212;DHT22;3647;48.792;9.802;2023-01-13T17:19:07;6.60;99.90
7212;DHT22;3647;48.792;9.802;2023-01-13T17:21:34;6.60;99.90
7212;DHT22;3647;48.792;9.802;2023-01-13T17:24:00;6.50;99.90
7212;DHT22;3647;48.792;9.802;2023-01-13T17:26:33;6.50;99.90
7212;DHT22;3647;48.792;9.802;2023-01-13T17:29:03;6.40;99.90
7212;DHT22;3647;48.792;9.802;2023-01-13T17:31:30;7.30;99.90
7212;DHT22;3647;48.792;9.802;2023-01-13T17:33:57;6.40;99.90
7212;DHT22;3647;48.792;9.802;2023-01-13T17:36:24;8.30;99.90
7212;DHT22;3647;48.792;9.802;2023-01-13T17:38:51;8.10;99.90
7212;DHT22;3647;48.792;9.802;2023-01-13T17:41:17;8.60;99.90
7212;DHT22;3647;48.792;9.802;2023-01-13T17:43:46;6.30;99.90
7212;DHT22;3647;48.792;9.802;2023-01-13T17:46:13;6.40;99.90
7212;DHT22;3647;48.792;9.802;2023-01-13T17:48:44;6.40;99.90
7212;DHT22;3647;48.792;9.802;2023-01-13T17:51:12;6.40;99.90
7212;DHT22;3647;48.792;9.802;2023-01-13T17:53:39;6.50;99.90
7212;DHT22;3647;48.792;9.802;2023-01-13T17:56:08;7.00;99.90
7212;DHT22;3647;48.792;9.802;2023-01-13T17:58:35;9.30;99.90
7212;DHT22;3647;48.792;9.802;2023-01-13T18:01:07;6.60;99.90
7212;DHT22;3647;48.792;9.802;2023-01-13T18:03:35;6.00;99.90
7212;DHT22;3647;48.792;9.802;2023-01-13T18:06:03;8.20;99.90
7212;DHT22;3647;48.792;9.802;2023-01-13T18:08:30;6.80;99.90
7212;DHT22;3647;48.792;9.802;2023-01-13T18:10:57;6.90;99.90
7212;DHT22;3647;48.792;9.802;2023-01-13T18:13:25;6.90;99.90
7212;DHT22;3647;48.792;9.802;2023-01-13T18:15:58;7.00;99.90
7212;DHT22;3647;48.792;9.802;2023-01-13T18:18:27;7.00;99.90
7212;DHT22;3647;48.792;9.802;2023-01-13T18:20:54;7.00;99.90
7212;DHT22;3647;48.792;9.802;2023-01-13T18:23:39;7.10;99.90
7212;DHT22;3647;48.792;9.802;2023-01-13T18:26:23;7.60;99.90
7212;DHT22;3647;48.792;9.802;2023-01-13T18:29:07;7.10;99.90
7212;DHT22;3647;48.792;9.802;2023-01-13T18:31:34;7.10;99.90
7212;DHT22;3647;48.792;9.802;2023-01-13T18:34:02;7.10;99.90
7212;DHT22;3647;48.792;9.802;2023-01-13T18:36:28;7.10;99.90
7212;DHT22;3647;48.792;9.802;2023-01-13T18:38:55;7.20;99.90
7212;DHT22;3647;48.792;9.802;2023-01-13T18:41:22;7.10;99.90
7212;DHT22;3647;48.792;9.802;2023-01-13T18:44:06;7.10;99.90
7212;DHT22;3647;48.792;9.802;2023-01-13T18:46:33;8.10;99.90
7212;DHT22;3647;48.792;9.802;2023-01-13T18:49:01;7.10;99.90
7212;DHT22;3647;48.792;9.802;2023-01-13T18:51:28;8.30;99.90
7212;DHT22;3647;48.792;9.802;2023-01-13T18:53:55;7.60;99.90
7212;DHT22;3647;48.792;9.802;2023-01-13T18:56:21;7.10;99.90
7212;DHT22;3647;48.792;9.802;2023-01-13T18:58:48;7.10;99.90
7212;DHT22;3647;48.792;9.802;2023-01-13T19:01:18;7.10;99.90
7212;DHT22;3647;48.792;9.802;2023-01-13T19:03:52;7.10;99.90
7212;DHT22;3647;48.792;9.802;2023-01-13T19:06:20;7.10;99.90
7212;DHT22;3647;48.792;9.802;2023-01-13T19:08:47;8.80;99.90
7212;DHT22;3647;48.792;9.802;2023-01-13T19:11:19;7.00;99.90
7212;DHT22;3647;48.792;9.802;2023-01-13T19:13:47;6.90;99.90
7212;DHT22;3647;48.792;9.802;2023-01-13T19:16:14;8.00;99.90
7212;DHT22;3647;48.792;9.802;2023-01-13T19:18:42;6.80;99.90
7212;DHT22;3647;48.792;9.802;2023-01-13T19:21:09;6.80;99.90
7212;DHT22;3647;48.792;9.802;2023-01-13T19:23:37;7.00;99.90
7212;DHT22;3647;48.792;9.802;2023-01-13T19:26:06;6.70;99.90
7212;DHT22;3647;48.792;9.802;2023-01-13T19:28:33;6.70;99.90
7212;DHT22;3647;48.792;9.802;2023-01-13T19:31:00;6.80;99.90
7212;DHT22;3647;48.792;9.802;2023-01-13T19:33:27;6.70;99.90
7212;DHT22;3647;48.792;9.802;2023-01-13T19:35:55;6.90;99.90
7212;DHT22;3647;48.792;9.802;2023-01-13T19:38:22;7.40;99.90
7212;DHT22;3647;48.792;9.802;2023-01-13T19:40:55;8.10;99.90
7212;DHT22;3647;48.792;9.802;2023-01-13T19:43:21;6.60;99.90
7212;DHT22;3647;48.792;9.802;2023-01-13T19:46:06;6.60;99.90
7212;DHT22;3647;48.792;9.802;2023-01-13T19:48:33;6.60;99.90
7212;DHT22;3647;48.792;9.802;2023-01-13T19:51:00;6.60;99.90
7212;DHT22;3647;48.792;9.802;2023-01-13T19:53:27;6.50;99.90
7212;DHT22;3647;48.792;9.802;2023-01-13T19:55:56;6.50;99.90
7212;DHT22;3647;48.792;9.802;2023-01-13T19:58:23;6.80;99.90
7212;DHT22;3647;48.792;9.802;2023-01-13T20:00:51;7.70;99.90
7212;DHT22;3647;48.792;9.802;2023-01-13T20:03:19;6.50;99.90
7212;DHT22;3647;48.792;9.802;2023-01-13T20:05:48;6.40;99.90
7212;DHT22;3647;48.792;9.802;2023-01-13T20:08:15;6.40;99.90
7212;DHT22;3647;48.792;9.802;2023-01-13T20:10:43;6.30;99.90
7212;DHT22;3647;48.792;9.802;2023-01-13T20:13:11;6.30;99.90
7212;DHT22;3647;48.792;9.802;2023-01-13T20:15:38;6.30;99.90
7212;DHT22;3647;48.792;9.802;2023-01-13T20:18:05;6.30;99.90
7212;DHT22;3647;48.792;9.802;2023-01-13T20:20:32;6.30;99.90
7212;DHT22;3647;48.792;9.802;2023-01-13T20:22:59;6.30;99.90
7212;DHT22;3647;48.792;9.802;2023-01-13T20:25:26;6.30;99.90
7212;DHT22;3647;48.792;9.802;2023-01-13T20:27:54;6.20;99.90
7212;DHT22;3647;48.792;9.802;2023-01-13T20:30:22;6.20;99.90
7212;DHT22;3647;48.792;9.802;2023-01-13T20:32:49;6.20;99.90
7212;DHT22;3647;48.792;9.802;2023-01-13T20:35:16;7.60;99.90
7212;DHT22;3647;48.792;9.802;2023-01-13T20:37:43;6.20;99.90
7212;DHT22;3647;48.792;9.802;2023-01-13T20:40:13;6.20;99.90
7212;DHT22;3647;48.792;9.802;2023-01-13T20:42:40;6.20;99.90
7212;DHT22;3647;48.792;9.802;2023-01-13T20:45:10;6.10;99.90
7212;DHT22;3647;48.792;9.802;2023-01-13T20:47:43;6.10;99.90
7212;DHT22;3647;48.792;9.802;2023-01-13T20:50:10;6.10;99.90
7212;DHT22;3647;48.792;9.802;2023-01-13T20:52:37;6.10;99.90
7212;DHT22;3647;48.792;9.802;2023-01-13T20:55:05;6.10;99.90
7212;DHT22;3647;48.792;9.802;2023-01-13T20:57:32;6.10;99.90
7212;DHT22;3647;48.792;9.802;2023-01-13T20:59:59;6.00;99.90
7212;DHT22;3647;48.792;9.802;2023-01-13T21:02:27;7.10;99.90
7212;DHT22;3647;48.792;9.802;2023-01-13T21:04:55;6.90;99.90
7212;DHT22;3647;48.792;9.802;2023-01-13T21:07:22;5.90;99.90
7212;DHT22;3647;48.792;9.802;2023-01-13T21:09:49;5.90;99.90
7212;DHT22;3647;48.792;9.802;2023-01-13T21:12:16;6.70;99.90
7212;DHT22;3647;48.792;9.802;2023-01-13T21:15:01;5.70;99.90
7212;DHT22;3647;48.792;9.802;2023-01-13T21:17:45;5.70;99.90
7212;DHT22;3647;48.792;9.802;2023-01-13T21:20:32;5.60;99.90
7212;DHT22;3647;48.792;9.802;2023-01-13T21:22:59;5.60;99.90
7212;DHT22;3647;48.792;9.802;2023-01-13T21:25:26;5.60;99.90
7212;DHT22;3647;48.792;9.802;2023-01-13T21:27:54;5.50;99.90
7212;DHT22;3647;48.792;9.802;2023-01-13T21:30:23;5.50;99.90
7212;DHT22;3647;48.792;9.802;2023-01-13T21:32:50;5.40;99.90
7212;DHT22;3647;48.792;9.802;2023-01-13T21:35:17;5.50;99.90
7212;DHT22;3647;48.792;9.802;2023-01-13T21:37:45;5.40;99.90
7212;DHT22;3647;48.792;9.802;2023-01-13T21:40:12;5.40;99.90
7212;DHT22;3647;48.792;9.802;2023-01-13T21:42:39;5.30;99.90
7212;DHT22;3647;48.792;9.802;2023-01-13T21:45:24;5.30;99.90
7212;DHT22;3647;48.792;9.802;2023-01-13T21:48:08;5.30;99.90
7212;DHT22;3647;48.792;9.802;2023-01-13T21:50:36;5.30;99.90
7212;DHT22;3647;48.792;9.802;2023-01-13T21:53:05;5.20;99.90
7212;DHT22;3647;48.792;9.802;2023-01-13T21:55:34;5.20;99.90
7212;DHT22;3647;48.792;9.802;2023-01-13T21:58:07;5.20;99.90
7212;DHT22;3647;48.792;9.802;2023-01-13T22:00:35;5.30;99.90
7212;DHT22;3647;48.792;9.802;2023-01-13T22:03:02;5.20;99.90
7212;DHT22;3647;48.792;9.802;2023-01-13T22:05:30;5.20;99.90
7212;DHT22;3647;48.792;9.802;2023-01-13T22:07:56;5.20;99.90
7212;DHT22;3647;48.792;9.802;2023-01-13T22:10:26;5.20;99.90
7212;DHT22;3647;48.792;9.802;2023-01-13T22:12:56;5.30;99.90
7212;DHT22;3647;48.792;9.802;2023-01-13T22:15:24;5.30;99.90
7212;DHT22;3647;48.792;9.802;2023-01-13T22:17:53;5.30;99.90
7212;DHT22;3647;48.792;9.802;2023-01-13T22:20:20;5.40;99.90
7212;DHT22;3647;48.792;9.802;2023-01-13T22:22:48;5.40;99.90
7212;DHT22;3647;48.792;9.802;2023-01-13T22:25:16;5.40;99.90
7212;DHT22;3647;48.792;9.802;2023-01-13T22:27:45;5.40;99.90
7212;DHT22;3647;48.792;9.802;2023-01-13T22:30:15;5.50;99.90
7212;DHT22;3647;48.792;9.802;2023-01-13T22:32:43;5.50;99.90
7212;DHT22;3647;48.792;9.802;2023-01-13T22:35:12;5.40;99.90
7212;DHT22;3647;48.792;9.802;2023-01-13T22:37:40;5.40;99.90
7212;DHT22;3647;48.792;9.802;2023-01-13T22:40:10;5.40;99.90
7212;DHT22;3647;48.792;9.802;2023-01-13T22:42:37;4.80;99.90
7212;DHT22;3647;48.792;9.802;2023-01-13T22:45:08;5.50;99.90
7212;DHT22;3647;48.792;9.802;2023-01-13T22:47:35;5.50;99.90
7212;DHT22;3647;48.792;9.802;2023-01-13T22:50:03;5.50;99.90
7212;DHT22;3647;48.792;9.802;2023-01-13T22:52:31;5.60;99.90
7212;DHT22;3647;48.792;9.802;2023-01-13T22:54:58;5.60;99.90
7212;DHT22;3647;48.792;9.802;2023-01-13T22:57:28;5.50;99.90
7212;DHT22;3647;48.792;9.802;2023-01-13T22:59:54;5.50;99.90
7212;DHT22;3647;48.792;9.802;2023-01-13T23:02:23;5.50;99.90
